sensor_id;sensor_type;location;lat;lon;timestamp;P1;durP1;ratioP1;P2;durP2;ratioP2
36827;SDS011;22766;48.042;11.192;2022-10-04T00:00:26;3.35;;;1.67;;
36827;SDS011;22766;48.042;11.192;2022-10-04T00:03:18;1.52;;;1.05;;
36827;SDS011;22766;48.042;11.192;2022-10-04T00:05:52;1.60;;;1.27;;
36827;SDS011;22766;48.042;11.192;2022-10-04T00:11:12;1.83;;;1.15;;
36827;SDS011;22766;48.042;11.192;2022-10-04T00:13:46;3.78;;;1.67;;
36827;SDS011;22766;48.042;11.192;2022-10-04T00:16:24;2.75;;;2.25;;
36827;SDS011;22766;48.042;11.192;2022-10-04T00:34:49;4.78;;;1.48;;
36827;SDS011;22766;48.042;11.192;2022-10-04T00:37:17;1.58;;;0.98;;
36827;SDS011;22766;48.042;11.192;2022-10-04T00:39:46;2.72;;;1.20;;
36827;SDS011;22766;48.042;11.192;2022-10-04T00:42:37;1.83;;;1.02;;
36827;SDS011;22766;48.042;11.192;2022-10-04T00:50:17;3.10;;;1.23;;
36827;SDS011;22766;48.042;11.192;2022-10-04T00:52:50;1.33;;;0.77;;
36827;SDS011;22766;48.042;11.192;2022-10-04T00:55:29;2.30;;;1.13;;
36827;SDS011;22766;48.042;11.192;2022-10-04T00:58:02;0.55;;;0.55;;
36827;SDS011;22766;48.042;11.192;2022-10-04T01:00:33;1.92;;;1.10;;
36827;SDS011;22766;48.042;11.192;2022-10-04T01:05:51;0.68;;;0.68;;
36827;SDS011;22766;48.042;11.192;2022-10-04T01:08:24;1.20;;;0.87;;
36827;SDS011;22766;48.042;11.192;2022-10-04T01:11:29;1.25;;;0.77;;
36827;SDS011;22766;48.042;11.192;2022-10-04T01:13:57;1.33;;;0.90;;
36827;SDS011;22766;48.042;11.192;2022-10-04T01:16:33;1.25;;;0.90;;
36827;SDS011;22766;48.042;11.192;2022-10-04T01:24:33;3.90;;;1.77;;
36827;SDS011;22766;48.042;11.192;2022-10-04T01:27:03;1.15;;;0.90;;
36827;SDS011;22766;48.042;11.192;2022-10-04T01:29:52;1.25;;;0.73;;
36827;SDS011;22766;48.042;11.192;2022-10-04T01:32:19;2.35;;;0.70;;
36827;SDS011;22766;48.042;11.192;2022-10-04T01:34:46;1.17;;;0.73;;
36827;SDS011;22766;48.042;11.192;2022-10-04T01:37:13;2.28;;;0.70;;
36827;SDS011;22766;48.042;11.192;2022-10-04T01:39:39;1.38;;;0.93;;
36827;SDS011;22766;48.042;11.192;2022-10-04T01:44:47;0.60;;;0.60;;
36827;SDS011;22766;48.042;11.192;2022-10-04T01:47:20;1.00;;;0.70;;
36827;SDS011;22766;48.042;11.192;2022-10-04T01:49:52;0.85;;;0.73;;
36827;SDS011;22766;48.042;11.192;2022-10-04T01:52:28;1.20;;;0.90;;
36827;SDS011;22766;48.042;11.192;2022-10-04T01:55:02;1.00;;;0.70;;
36827;SDS011;22766;48.042;11.192;2022-10-04T01:57:40;2.72;;;2.10;;
36827;SDS011;22766;48.042;11.192;2022-10-04T02:00:10;1.17;;;0.90;;
36827;SDS011;22766;48.042;11.192;2022-10-04T02:02:48;0.70;;;0.60;;
36827;SDS011;22766;48.042;11.192;2022-10-04T02:06:04;1.55;;;0.75;;
36827;SDS011;22766;48.042;11.192;2022-10-04T02:08:17;0.73;;;0.50;;
36827;SDS011;22766;48.042;11.192;2022-10-04T02:10:51;1.55;;;0.85;;
36827;SDS011;22766;48.042;11.192;2022-10-04T02:13:20;1.38;;;1.00;;
36827;SDS011;22766;48.042;11.192;2022-10-04T02:15:49;1.05;;;0.80;;
36827;SDS011;22766;48.042;11.192;2022-10-04T02:18:17;1.77;;;0.90;;
36827;SDS011;22766;48.042;11.192;2022-10-04T02:20:49;0.93;;;0.65;;
36827;SDS011;22766;48.042;11.192;2022-10-04T02:23:17;0.93;;;0.70;;
36827;SDS011;22766;48.042;11.192;2022-10-04T02:25:46;1.10;;;0.68;;
36827;SDS011;22766;48.042;11.192;2022-10-04T02:28:13;1.13;;;0.80;;
36827;SDS011;22766;48.042;11.192;2022-10-04T02:30:43;1.75;;;0.70;;
36827;SDS011;22766;48.042;11.192;2022-10-04T02:33:37;0.93;;;0.82;;
36827;SDS011;22766;48.042;11.192;2022-10-04T02:36:06;1.27;;;0.88;;
36827;SDS011;22766;48.042;11.192;2022-10-04T02:38:35;1.92;;;1.02;;
36827;SDS011;22766;48.042;11.192;2022-10-04T02:48:53;1.15;;;0.70;;
36827;SDS011;22766;48.042;11.192;2022-10-04T02:54:02;1.30;;;0.90;;
36827;SDS011;22766;48.042;11.192;2022-10-04T02:56:30;3.03;;;1.25;;
36827;SDS011;22766;48.042;11.192;2022-10-04T02:59:01;6.55;;;1.70;;
36827;SDS011;22766;48.042;11.192;2022-10-04T03:04:28;4.13;;;1.98;;
36827;SDS011;22766;48.042;11.192;2022-10-04T03:06:58;4.50;;;1.70;;
36827;SDS011;22766;48.042;11.192;2022-10-04T03:09:29;3.67;;;1.63;;
36827;SDS011;22766;48.042;11.192;2022-10-04T03:11:56;6.80;;;1.40;;
36827;SDS011;22766;48.042;11.192;2022-10-04T03:14:25;5.50;;;1.52;;
36827;SDS011;22766;48.042;11.192;2022-10-04T03:16:54;5.20;;;1.92;;
36827;SDS011;22766;48.042;11.192;2022-10-04T03:19:23;6.55;;;2.28;;
36827;SDS011;22766;48.042;11.192;2022-10-04T03:21:52;3.97;;;1.90;;
36827;SDS011;22766;48.042;11.192;2022-10-04T03:24:24;8.10;;;2.25;;
36827;SDS011;22766;48.042;11.192;2022-10-04T03:27:13;2.95;;;2.20;;
36827;SDS011;22766;48.042;11.192;2022-10-04T03:29:54;2.90;;;1.38;;
36827;SDS011;22766;48.042;11.192;2022-10-04T03:32:24;2.37;;;1.30;;
36827;SDS011;22766;48.042;11.192;2022-10-04T03:34:56;2.67;;;1.48;;
36827;SDS011;22766;48.042;11.192;2022-10-04T03:37:25;5.00;;;1.80;;
36827;SDS011;22766;48.042;11.192;2022-10-04T03:39:54;1.77;;;1.13;;
36827;SDS011;22766;48.042;11.192;2022-10-04T03:42:23;3.85;;;1.60;;
36827;SDS011;22766;48.042;11.192;2022-10-04T03:44:53;2.08;;;1.30;;
36827;SDS011;22766;48.042;11.192;2022-10-04T03:47:25;1.98;;;1.23;;
36827;SDS011;22766;48.042;11.192;2022-10-04T03:49:55;5.07;;;1.65;;
36827;SDS011;22766;48.042;11.192;2022-10-04T03:52:27;1.52;;;1.20;;
36827;SDS011;22766;48.042;11.192;2022-10-04T03:57:27;1.60;;;0.82;;
36827;SDS011;22766;48.042;11.192;2022-10-04T03:59:55;1.98;;;0.93;;
36827;SDS011;22766;48.042;11.192;2022-10-04T04:02:34;1.88;;;1.15;;
36827;SDS011;22766;48.042;11.192;2022-10-04T04:05:14;2.45;;;1.27;;
36827;SDS011;22766;48.042;11.192;2022-10-04T04:07:54;6.35;;;1.98;;
36827;SDS011;22766;48.042;11.192;2022-10-04T04:10:42;2.45;;;1.40;;
36827;SDS011;22766;48.042;11.192;2022-10-04T04:13:19;1.55;;;1.02;;
36827;SDS011;22766;48.042;11.192;2022-10-04T04:15:53;2.13;;;1.20;;
36827;SDS011;22766;48.042;11.192;2022-10-04T04:18:30;1.75;;;1.00;;
36827;SDS011;22766;48.042;11.192;2022-10-04T04:21:00;2.45;;;0.98;;
36827;SDS011;22766;48.042;11.192;2022-10-04T04:23:35;4.88;;;1.00;;
36827;SDS011;22766;48.042;11.192;2022-10-04T04:26:17;1.50;;;0.93;;
36827;SDS011;22766;48.042;11.192;2022-10-04T04:28:53;4.28;;;0.70;;
36827;SDS011;22766;48.042;11.192;2022-10-04T04:31:24;1.50;;;0.90;;
36827;SDS011;22766;48.042;11.192;2022-10-04T04:33:56;1.30;;;0.82;;
36827;SDS011;22766;48.042;11.192;2022-10-04T04:36:25;1.35;;;0.80;;
36827;SDS011;22766;48.042;11.192;2022-10-04T04:39:05;1.75;;;0.82;;
36827;SDS011;22766;48.042;11.192;2022-10-04T04:44:47;1.80;;;1.02;;
36827;SDS011;22766;48.042;11.192;2022-10-04T04:47:19;5.38;;;1.80;;
36827;SDS011;22766;48.042;11.192;2022-10-04T04:50:05;9.95;;;2.78;;
36827;SDS011;22766;48.042;11.192;2022-10-04T04:52:39;4.95;;;1.58;;
36827;SDS011;22766;48.042;11.192;2022-10-04T04:55:14;2.90;;;1.50;;
36827;SDS011;22766;48.042;11.192;2022-10-04T04:57:47;8.25;;;1.48;;
36827;SDS011;22766;48.042;11.192;2022-10-04T05:00:16;2.45;;;1.30;;
36827;SDS011;22766;48.042;11.192;2022-10-04T05:02:54;2.60;;;1.20;;
36827;SDS011;22766;48.042;11.192;2022-10-04T05:05:28;3.88;;;1.77;;
36827;SDS011;22766;48.042;11.192;2022-10-04T05:10:35;2.03;;;1.60;;
36827;SDS011;22766;48.042;11.192;2022-10-04T05:13:07;4.03;;;1.38;;
36827;SDS011;22766;48.042;11.192;2022-10-04T05:15:36;4.60;;;1.20;;
36827;SDS011;22766;48.042;11.192;2022-10-04T05:21:02;5.45;;;1.23;;
36827;SDS011;22766;48.042;11.192;2022-10-04T05:23:33;2.40;;;1.20;;
36827;SDS011;22766;48.042;11.192;2022-10-04T05:26:01;1.70;;;0.90;;
36827;SDS011;22766;48.042;11.192;2022-10-04T05:28:29;1.85;;;1.10;;
36827;SDS011;22766;48.042;11.192;2022-10-04T05:33:50;1.65;;;0.80;;
36827;SDS011;22766;48.042;11.192;2022-10-04T05:39:20;2.67;;;1.02;;
36827;SDS011;22766;48.042;11.192;2022-10-04T05:41:57;7.20;;;1.02;;
36827;SDS011;22766;48.042;11.192;2022-10-04T05:44:36;2.17;;;0.93;;
36827;SDS011;22766;48.042;11.192;2022-10-04T05:47:10;1.55;;;0.98;;
36827;SDS011;22766;48.042;11.192;2022-10-04T05:49:40;1.10;;;0.90;;
36827;SDS011;22766;48.042;11.192;2022-10-04T05:52:23;2.55;;;0.77;;
36827;SDS011;22766;48.042;11.192;2022-10-04T06:00:34;1.35;;;0.90;;
36827;SDS011;22766;48.042;11.192;2022-10-04T06:06:19;2.85;;;1.20;;
36827;SDS011;22766;48.042;11.192;2022-10-04T06:14:24;2.22;;;1.30;;
36827;SDS011;22766;48.042;11.192;2022-10-04T06:22:41;2.60;;;1.40;;
36827;SDS011;22766;48.042;11.192;2022-10-04T06:25:22;2.15;;;1.13;;
36827;SDS011;22766;48.042;11.192;2022-10-04T06:36:40;3.50;;;1.88;;
36827;SDS011;22766;48.042;11.192;2022-10-04T06:39:21;3.88;;;1.95;;
36827;SDS011;22766;48.042;11.192;2022-10-04T06:45:08;1.95;;;1.15;;
36827;SDS011;22766;48.042;11.192;2022-10-04T06:50:27;5.55;;;1.40;;
36827;SDS011;22766;48.042;11.192;2022-10-04T07:01:01;4.35;;;1.70;;
36827;SDS011;22766;48.042;11.192;2022-10-04T07:04:20;3.65;;;1.52;;
36827;SDS011;22766;48.042;11.192;2022-10-04T07:06:41;2.72;;;1.63;;
36827;SDS011;22766;48.042;11.192;2022-10-04T07:09:20;3.05;;;1.70;;
36827;SDS011;22766;48.042;11.192;2022-10-04T07:11:54;1.92;;;1.35;;
36827;SDS011;22766;48.042;11.192;2022-10-04T07:14:33;3.50;;;1.80;;
36827;SDS011;22766;48.042;11.192;2022-10-04T07:17:09;2.65;;;1.55;;
36827;SDS011;22766;48.042;11.192;2022-10-04T07:19:47;7.15;;;1.95;;
36827;SDS011;22766;48.042;11.192;2022-10-04T07:22:21;9.20;;;2.38;;
36827;SDS011;22766;48.042;11.192;2022-10-04T07:30:51;3.78;;;1.73;;
36827;SDS011;22766;48.042;11.192;2022-10-04T07:33:22;7.65;;;1.90;;
36827;SDS011;22766;48.042;11.192;2022-10-04T07:35:54;2.83;;;1.60;;
36827;SDS011;22766;48.042;11.192;2022-10-04T07:38:30;2.28;;;1.45;;
36827;SDS011;22766;48.042;11.192;2022-10-04T07:41:11;2.15;;;1.38;;
36827;SDS011;22766;48.042;11.192;2022-10-04T07:48:44;6.18;;;1.67;;
36827;SDS011;22766;48.042;11.192;2022-10-04T08:02:42;3.88;;;1.75;;
36827;SDS011;22766;48.042;11.192;2022-10-04T08:05:26;2.40;;;1.60;;
36827;SDS011;22766;48.042;11.192;2022-10-04T08:50:36;1.75;;;1.20;;
36827;SDS011;22766;48.042;11.192;2022-10-04T09:13:39;5.30;;;1.58;;
36827;SDS011;22766;48.042;11.192;2022-10-04T09:19:22;2.58;;;1.40;;
36827;SDS011;22766;48.042;11.192;2022-10-04T09:21:54;2.17;;;1.48;;
36827;SDS011;22766;48.042;11.192;2022-10-04T09:30:22;3.22;;;1.23;;
36827;SDS011;22766;48.042;11.192;2022-10-04T09:38:40;2.63;;;1.50;;
36827;SDS011;22766;48.042;11.192;2022-10-04T09:49:32;3.30;;;1.42;;
36827;SDS011;22766;48.042;11.192;2022-10-04T09:52:30;2.40;;;1.73;;
36827;SDS011;22766;48.042;11.192;2022-10-04T09:55:12;2.28;;;1.50;;
36827;SDS011;22766;48.042;11.192;2022-10-04T10:02:53;2.63;;;1.60;;
36827;SDS011;22766;48.042;11.192;2022-10-04T10:05:27;1.98;;;1.45;;
36827;SDS011;22766;48.042;11.192;2022-10-04T10:08:25;3.08;;;1.63;;
36827;SDS011;22766;48.042;11.192;2022-10-04T10:11:09;2.65;;;1.80;;
36827;SDS011;22766;48.042;11.192;2022-10-04T10:16:52;2.63;;;1.50;;
36827;SDS011;22766;48.042;11.192;2022-10-04T10:36:27;3.30;;;1.45;;
36827;SDS011;22766;48.042;11.192;2022-10-04T10:50:33;1.55;;;1.10;;
36827;SDS011;22766;48.042;11.192;2022-10-04T11:01:52;1.40;;;1.20;;
36827;SDS011;22766;48.042;11.192;2022-10-04T11:18:36;1.70;;;1.25;;
36827;SDS011;22766;48.042;11.192;2022-10-04T11:27:27;2.20;;;1.10;;
36827;SDS011;22766;48.042;11.192;2022-10-04T11:36:01;1.73;;;1.23;;
36827;SDS011;22766;48.042;11.192;2022-10-04T11:50:31;1.38;;;0.60;;
36827;SDS011;22766;48.042;11.192;2022-10-04T12:09:46;0.87;;;0.70;;
36827;SDS011;22766;48.042;11.192;2022-10-04T12:22:05;0.82;;;0.70;;
36827;SDS011;22766;48.042;11.192;2022-10-04T12:24:52;1.77;;;0.57;;
36827;SDS011;22766;48.042;11.192;2022-10-04T12:30:31;0.95;;;0.70;;
36827;SDS011;22766;48.042;11.192;2022-10-04T12:46:51;1.25;;;0.50;;
36827;SDS011;22766;48.042;11.192;2022-10-04T13:00:22;1.23;;;0.65;;
36827;SDS011;22766;48.042;11.192;2022-10-04T13:02:52;4.57;;;0.60;;
36827;SDS011;22766;48.042;11.192;2022-10-04T13:14:21;0.90;;;0.47;;
36827;SDS011;22766;48.042;11.192;2022-10-04T13:46:17;1.05;;;0.40;;
36827;SDS011;22766;48.042;11.192;2022-10-04T13:57:19;1.83;;;0.43;;
36827;SDS011;22766;48.042;11.192;2022-10-04T14:23:54;1.48;;;0.55;;
36827;SDS011;22766;48.042;11.192;2022-10-04T14:52:02;3.80;;;0.98;;
36827;SDS011;22766;48.042;11.192;2022-10-04T14:54:52;1.23;;;0.70;;
36827;SDS011;22766;48.042;11.192;2022-10-04T14:57:39;0.95;;;0.57;;
36827;SDS011;22766;48.042;11.192;2022-10-04T15:00:22;0.93;;;0.60;;
36827;SDS011;22766;48.042;11.192;2022-10-04T15:05:39;1.45;;;0.60;;
36827;SDS011;22766;48.042;11.192;2022-10-04T15:10:51;1.05;;;0.55;;
36827;SDS011;22766;48.042;11.192;2022-10-04T15:13:29;1.45;;;0.50;;
36827;SDS011;22766;48.042;11.192;2022-10-04T15:29:23;4.53;;;0.65;;
36827;SDS011;22766;48.042;11.192;2022-10-04T15:32:00;1.48;;;0.60;;
36827;SDS011;22766;48.042;11.192;2022-10-04T15:37:22;3.47;;;0.50;;
36827;SDS011;22766;48.042;11.192;2022-10-04T15:42:36;0.52;;;0.50;;
36827;SDS011;22766;48.042;11.192;2022-10-04T15:51:01;1.90;;;0.60;;
36827;SDS011;22766;48.042;11.192;2022-10-04T15:59:07;0.63;;;0.50;;
36827;SDS011;22766;48.042;11.192;2022-10-04T16:01:47;4.20;;;0.70;;
36827;SDS011;22766;48.042;11.192;2022-10-04T16:04:34;0.95;;;0.60;;
36827;SDS011;22766;48.042;11.192;2022-10-04T16:25:51;2.33;;;0.95;;
36827;SDS011;22766;48.042;11.192;2022-10-04T16:31:22;1.77;;;0.85;;
36827;SDS011;22766;48.042;11.192;2022-10-04T16:33:55;2.88;;;0.77;;
36827;SDS011;22766;48.042;11.192;2022-10-04T16:36:41;2.70;;;1.05;;
36827;SDS011;22766;48.042;11.192;2022-10-04T16:39:09;1.40;;;0.85;;
36827;SDS011;22766;48.042;11.192;2022-10-04T16:41:57;1.40;;;0.88;;
36827;SDS011;22766;48.042;11.192;2022-10-04T16:44:33;1.88;;;0.88;;
36827;SDS011;22766;48.042;11.192;2022-10-04T16:47:17;1.50;;;0.80;;
36827;SDS011;22766;48.042;11.192;2022-10-04T16:49:50;3.00;;;1.02;;
36827;SDS011;22766;48.042;11.192;2022-10-04T17:03:52;2.13;;;1.10;;
36827;SDS011;22766;48.042;11.192;2022-10-04T17:06:33;2.60;;;1.30;;
36827;SDS011;22766;48.042;11.192;2022-10-04T17:15:10;2.22;;;1.20;;
36827;SDS011;22766;48.042;11.192;2022-10-04T17:37:19;6.63;;;1.13;;
36827;SDS011;22766;48.042;11.192;2022-10-04T17:54:11;5.60;;;2.17;;
36827;SDS011;22766;48.042;11.192;2022-10-04T17:59:36;2.72;;;2.10;;
36827;SDS011;22766;48.042;11.192;2022-10-04T18:02:19;4.15;;;1.95;;
36827;SDS011;22766;48.042;11.192;2022-10-04T18:04:53;3.95;;;2.55;;
36827;SDS011;22766;48.042;11.192;2022-10-04T18:07:27;3.70;;;2.10;;
36827;SDS011;22766;48.042;11.192;2022-10-04T18:13:12;5.82;;;2.20;;
36827;SDS011;22766;48.042;11.192;2022-10-04T18:15:50;4.50;;;1.88;;
36827;SDS011;22766;48.042;11.192;2022-10-04T18:18:23;3.58;;;1.60;;
36827;SDS011;22766;48.042;11.192;2022-10-04T18:23:56;3.13;;;2.05;;
36827;SDS011;22766;48.042;11.192;2022-10-04T18:26:27;2.25;;;1.45;;
36827;SDS011;22766;48.042;11.192;2022-10-04T18:28:58;5.30;;;1.60;;
36827;SDS011;22766;48.042;11.192;2022-10-04T18:37:19;3.30;;;2.10;;
36827;SDS011;22766;48.042;11.192;2022-10-04T18:39:52;3.22;;;1.70;;
36827;SDS011;22766;48.042;11.192;2022-10-04T18:42:24;4.90;;;2.40;;
36827;SDS011;22766;48.042;11.192;2022-10-04T18:45:01;5.15;;;2.05;;
36827;SDS011;22766;48.042;11.192;2022-10-04T18:47:49;3.03;;;1.70;;
36827;SDS011;22766;48.042;11.192;2022-10-04T18:50:31;2.03;;;1.20;;
36827;SDS011;22766;48.042;11.192;2022-10-04T18:55:48;5.07;;;3.22;;
36827;SDS011;22766;48.042;11.192;2022-10-04T19:07:15;5.13;;;2.78;;
36827;SDS011;22766;48.042;11.192;2022-10-04T19:26:11;3.40;;;1.92;;
36827;SDS011;22766;48.042;11.192;2022-10-04T19:29:01;2.47;;;1.95;;
36827;SDS011;22766;48.042;11.192;2022-10-04T19:32:00;3.33;;;2.08;;
36827;SDS011;22766;48.042;11.192;2022-10-04T19:37:28;4.68;;;2.80;;
36827;SDS011;22766;48.042;11.192;2022-10-04T19:48:31;4.22;;;2.35;;
36827;SDS011;22766;48.042;11.192;2022-10-04T19:51:11;5.43;;;2.63;;
36827;SDS011;22766;48.042;11.192;2022-10-04T19:53:46;6.35;;;2.67;;
36827;SDS011;22766;48.042;11.192;2022-10-04T19:56:22;4.82;;;2.17;;
36827;SDS011;22766;48.042;11.192;2022-10-04T19:59:04;4.47;;;2.53;;
36827;SDS011;22766;48.042;11.192;2022-10-04T20:01:36;4.30;;;2.08;;
36827;SDS011;22766;48.042;11.192;2022-10-04T20:04:06;4.18;;;2.00;;
36827;SDS011;22766;48.042;11.192;2022-10-04T20:06:57;3.13;;;1.90;;
36827;SDS011;22766;48.042;11.192;2022-10-04T20:12:26;3.67;;;2.30;;
36827;SDS011;22766;48.042;11.192;2022-10-04T20:17:42;5.40;;;2.05;;
36827;SDS011;22766;48.042;11.192;2022-10-04T20:20:13;4.68;;;2.10;;
36827;SDS011;22766;48.042;11.192;2022-10-04T20:22:59;3.42;;;2.22;;
36827;SDS011;22766;48.042;11.192;2022-10-04T20:28:36;4.40;;;2.60;;
36827;SDS011;22766;48.042;11.192;2022-10-04T20:33:47;7.88;;;3.20;;
36827;SDS011;22766;48.042;11.192;2022-10-04T20:46:20;5.40;;;2.58;;
36827;SDS011;22766;48.042;11.192;2022-10-04T20:48:48;3.38;;;1.90;;
36827;SDS011;22766;48.042;11.192;2022-10-04T20:51:18;6.65;;;1.90;;
36827;SDS011;22766;48.042;11.192;2022-10-04T20:53:47;8.15;;;2.13;;
36827;SDS011;22766;48.042;11.192;2022-10-04T20:56:21;3.53;;;2.20;;
36827;SDS011;22766;48.042;11.192;2022-10-04T20:58:55;3.95;;;2.05;;
36827;SDS011;22766;48.042;11.192;2022-10-04T21:01:23;4.97;;;2.55;;
36827;SDS011;22766;48.042;11.192;2022-10-04T21:07:10;6.10;;;2.40;;
36827;SDS011;22766;48.042;11.192;2022-10-04T21:09:42;6.35;;;2.50;;
36827;SDS011;22766;48.042;11.192;2022-10-04T21:12:28;7.50;;;2.25;;
36827;SDS011;22766;48.042;11.192;2022-10-04T21:19:54;2.97;;;1.80;;
36827;SDS011;22766;48.042;11.192;2022-10-04T21:24:55;4.13;;;1.30;;
36827;SDS011;22766;48.042;11.192;2022-10-04T21:27:33;7.43;;;1.75;;
36827;SDS011;22766;48.042;11.192;2022-10-04T21:30:00;3.85;;;1.90;;
36827;SDS011;22766;48.042;11.192;2022-10-04T21:32:33;2.63;;;1.90;;
36827;SDS011;22766;48.042;11.192;2022-10-04T21:35:02;3.22;;;2.00;;
36827;SDS011;22766;48.042;11.192;2022-10-04T21:37:30;2.75;;;1.83;;
36827;SDS011;22766;48.042;11.192;2022-10-04T21:40:00;3.75;;;2.03;;
36827;SDS011;22766;48.042;11.192;2022-10-04T21:42:27;3.70;;;1.75;;
36827;SDS011;22766;48.042;11.192;2022-10-04T21:44:56;3.30;;;1.88;;
36827;SDS011;22766;48.042;11.192;2022-10-04T21:47:22;3.10;;;1.67;;
36827;SDS011;22766;48.042;11.192;2022-10-04T21:49:49;5.40;;;2.47;;
36827;SDS011;22766;48.042;11.192;2022-10-04T21:52:20;3.47;;;1.87;;
36827;SDS011;22766;48.042;11.192;2022-10-04T21:54:47;3.70;;;2.05;;
36827;SDS011;22766;48.042;11.192;2022-10-04T21:57:15;4.35;;;1.73;;
36827;SDS011;22766;48.042;11.192;2022-10-04T21:59:41;3.72;;;2.20;;
36827;SDS011;22766;48.042;11.192;2022-10-04T22:02:08;5.38;;;2.28;;
36827;SDS011;22766;48.042;11.192;2022-10-04T22:04:34;4.25;;;2.20;;
36827;SDS011;22766;48.042;11.192;2022-10-04T22:07:03;5.07;;;2.10;;
36827;SDS011;22766;48.042;11.192;2022-10-04T22:09:30;9.00;;;3.05;;
36827;SDS011;22766;48.042;11.192;2022-10-04T22:11:57;11.50;;;2.55;;
36827;SDS011;22766;48.042;11.192;2022-10-04T22:14:26;5.20;;;2.97;;
36827;SDS011;22766;48.042;11.192;2022-10-04T22:16:53;2.90;;;1.88;;
36827;SDS011;22766;48.042;11.192;2022-10-04T22:19:20;3.55;;;1.75;;
36827;SDS011;22766;48.042;11.192;2022-10-04T22:21:46;3.70;;;1.80;;
36827;SDS011;22766;48.042;11.192;2022-10-04T22:24:17;3.22;;;1.88;;
36827;SDS011;22766;48.042;11.192;2022-10-04T22:26:45;4.45;;;1.73;;
36827;SDS011;22766;48.042;11.192;2022-10-04T22:29:14;2.30;;;1.42;;
36827;SDS011;22766;48.042;11.192;2022-10-04T22:31:45;2.92;;;1.67;;
36827;SDS011;22766;48.042;11.192;2022-10-04T22:34:16;2.47;;;1.48;;
36827;SDS011;22766;48.042;11.192;2022-10-04T22:36:44;2.45;;;1.52;;
36827;SDS011;22766;48.042;11.192;2022-10-04T22:39:15;3.47;;;1.83;;
36827;SDS011;22766;48.042;11.192;2022-10-04T22:41:44;2.95;;;1.65;;
36827;SDS011;22766;48.042;11.192;2022-10-04T22:46:42;3.60;;;1.88;;
36827;SDS011;22766;48.042;11.192;2022-10-04T22:49:12;2.55;;;1.50;;
36827;SDS011;22766;48.042;11.192;2022-10-04T22:51:41;2.63;;;1.73;;
36827;SDS011;22766;48.042;11.192;2022-10-04T22:54:13;4.70;;;2.13;;
36827;SDS011;22766;48.042;11.192;2022-10-04T22:56:42;3.63;;;2.03;;
36827;SDS011;22766;48.042;11.192;2022-10-04T22:59:10;4.13;;;1.90;;
36827;SDS011;22766;48.042;11.192;2022-10-04T23:01:37;4.15;;;1.75;;
36827;SDS011;22766;48.042;11.192;2022-10-04T23:04:15;2.67;;;1.63;;
36827;SDS011;22766;48.042;11.192;2022-10-04T23:06:50;3.45;;;1.60;;
36827;SDS011;22766;48.042;11.192;2022-10-04T23:09:18;6.00;;;1.90;;
36827;SDS011;22766;48.042;11.192;2022-10-04T23:11:45;5.60;;;2.10;;
36827;SDS011;22766;48.042;11.192;2022-10-04T23:14:12;5.32;;;2.40;;
36827;SDS011;22766;48.042;11.192;2022-10-04T23:16:39;8.27;;;2.72;;
36827;SDS011;22766;48.042;11.192;2022-10-04T23:21:44;5.15;;;3.10;;
36827;SDS011;22766;48.042;11.192;2022-10-04T23:24:20;6.00;;;3.08;;
36827;SDS011;22766;48.042;11.192;2022-10-04T23:26:49;11.20;;;3.47;;
36827;SDS011;22766;48.042;11.192;2022-10-04T23:29:24;8.98;;;2.60;;
36827;SDS011;22766;48.042;11.192;2022-10-04T23:31:53;3.95;;;2.40;;
36827;SDS011;22766;48.042;11.192;2022-10-04T23:34:29;6.15;;;2.53;;
36827;SDS011;22766;48.042;11.192;2022-10-04T23:37:01;4.25;;;1.88;;
36827;SDS011;22766;48.042;11.192;2022-10-04T23:39:29;3.72;;;2.00;;
36827;SDS011;22766;48.042;11.192;2022-10-04T23:41:59;3.30;;;1.90;;
36827;SDS011;22766;48.042;11.192;2022-10-04T23:44:35;10.80;;;2.47;;
36827;SDS011;22766;48.042;11.192;2022-10-04T23:47:07;7.35;;;2.13;;
36827;SDS011;22766;48.042;11.192;2022-10-04T23:49:39;3.88;;;1.92;;
36827;SDS011;22766;48.042;11.192;2022-10-04T23:52:07;6.82;;;1.63;;
36827;SDS011;22766;48.042;11.192;2022-10-04T23:54:39;2.63;;;1.73;;
36827;SDS011;22766;48.042;11.192;2022-10-04T23:57:07;3.17;;;1.80;;
36827;SDS011;22766;48.042;11.192;2022-10-04T23:59:36;2.53;;;1.50;;
